Time;durP1;ratioP1;P1;durP2;ratioP2;P2;SDS_P1;SDS_P2;PMS_P1;PMS_P2;Temp;Humidity;BMP_temperature;BMP_pressure;BME280_temperature;BME280_humidity;BME280_pressure;Samples;Min_cycle;Max_cycle;Signal;HPM_P1;HPM_P2
2021/06/30 00:01:13;;;;;;;6.93;3.10;;;16.50;92.00;;;;;;5053836;28;20033;-78
2021/06/30 00:03:39;;;;;;;4.93;2.80;;;16.50;92.00;;;;;;5054287;28;20025;-78
2021/06/30 00:06:05;;;;;;;5.13;2.53;;;16.50;92.00;;;;;;5054299;28;20089;-79
2021/06/30 00:08:31;;;;;;;5.15;3.10;;;16.50;92.40;;;;;;5054359;28;20025;-79
2021/06/30 00:10:57;;;;;;;4.20;2.30;;;16.50;92.20;;;;;;5054235;28;20039;-79
2021/06/30 00:13:24;;;;;;;4.93;3.35;;;16.50;92.40;;;;;;5054115;28;20025;-78
2021/06/30 00:15:50;;;;;;;4.40;2.38;;;16.50;92.20;;;;;;5052454;28;20017;-79
2021/06/30 00:18:16;;;;;;;5.80;2.47;;;16.50;92.20;;;;;;5061717;28;20034;-77
2021/06/30 00:20:42;;;;;;;3.70;2.30;;;16.40;92.00;;;;;;5055481;28;20021;-79
2021/06/30 00:23:09;;;;;;;3.47;2.08;;;16.40;92.10;;;;;;5053628;28;20048;-79
2021/06/30 00:25:34;;;;;;;3.35;1.88;;;16.30;92.00;;;;;;5053256;28;20021;-78
2021/06/30 00:28:00;;;;;;;4.88;1.90;;;16.40;92.20;;;;;;5053648;28;20029;-79
2021/06/30 00:30:26;;;;;;;6.47;2.55;;;16.40;92.30;;;;;;5053345;28;20021;-78
2021/06/30 00:32:51;;;;;;;4.53;2.67;;;16.30;92.20;;;;;;5054363;28;20377;-78
2021/06/30 00:35:17;;;;;;;7.30;2.90;;;16.40;92.20;;;;;;5053283;28;20446;-78
2021/06/30 00:37:43;;;;;;;5.15;2.60;;;16.30;92.10;;;;;;5053368;28;20079;-77
2021/06/30 00:40:10;;;;;;;4.97;2.80;;;16.30;92.20;;;;;;5053397;28;20389;-78
2021/06/30 00:42:36;;;;;;;7.53;2.80;;;16.30;92.40;;;;;;5060509;28;20031;-78
2021/06/30 00:45:07;;;;;;;4.05;2.42;;;16.30;92.30;;;;;;5072628;28;20021;-78
2021/06/30 00:47:33;;;;;;;3.88;2.40;;;16.30;92.30;;;;;;5054141;28;20043;-77
2021/06/30 00:49:59;;;;;;;4.18;2.13;;;16.30;92.10;;;;;;5054704;28;20031;-77
2021/06/30 00:52:24;;;;;;;2.92;1.85;;;16.30;92.10;;;;;;5059004;28;20112;-78
2021/06/30 00:54:50;;;;;;;5.53;2.78;;;16.20;92.00;;;;;;5059235;28;20112;-78
2021/06/30 00:57:18;;;;;;;4.15;2.28;;;16.30;92.00;;;;;;5058762;28;20032;-77
2021/06/30 00:59:44;;;;;;;5.45;2.45;;;16.30;92.00;;;;;;5052216;28;20112;-79
2021/06/30 01:02:10;;;;;;;4.93;2.63;;;16.10;92.10;;;;;;5053646;28;20392;-78
2021/06/30 01:04:36;;;;;;;3.42;1.98;;;16.20;92.20;;;;;;5053196;28;20107;-77
2021/06/30 01:07:02;;;;;;;5.53;2.63;;;16.10;92.10;;;;;;5053813;28;20350;-78
2021/06/30 01:09:28;;;;;;;4.45;2.38;;;16.20;92.00;;;;;;5054097;28;20036;-76
2021/06/30 01:11:55;;;;;;;5.07;2.85;;;16.20;92.20;;;;;;5053080;28;20118;-78
2021/06/30 01:14:29;;;;;;;6.85;2.95;;;16.10;92.10;;;;;;5052803;28;20021;-79
2021/06/30 01:16:56;;;;;;;5.35;2.95;;;16.10;92.20;;;;;;5053296;28;20028;-78
2021/06/30 01:19:23;;;;;;;5.03;2.83;;;16.10;92.70;;;;;;5053151;28;20029;-78
2021/06/30 01:21:49;;;;;;;5.82;2.35;;;16.20;92.40;;;;;;5052099;28;20045;-78
2021/06/30 01:24:16;;;;;;;6.15;2.28;;;16.20;92.30;;;;;;5052324;28;20075;-78
2021/06/30 01:26:42;;;;;;;4.32;2.13;;;16.20;92.20;;;;;;5055321;28;20029;-78
2021/06/30 01:29:08;;;;;;;4.85;2.55;;;16.20;92.10;;;;;;5057279;28;20090;-78
2021/06/30 01:31:35;;;;;;;4.50;2.85;;;16.20;92.20;;;;;;5061039;28;20048;-78
2021/06/30 01:34:00;;;;;;;5.28;2.35;;;16.20;92.20;;;;;;5060342;28;20033;-78
2021/06/30 01:36:26;;;;;;;4.97;2.88;;;16.20;92.20;;;;;;5055790;28;20028;-79
2021/06/30 01:38:51;;;;;;;5.15;3.00;;;16.20;92.30;;;;;;5056187;28;20056;-80
2021/06/30 01:41:17;;;;;;;5.35;2.92;;;16.20;92.00;;;;;;5056626;28;20029;-79
2021/06/30 01:43:43;;;;;;;4.93;3.17;;;16.20;92.00;;;;;;5059308;28;20013;-79
2021/06/30 01:46:09;;;;;;;6.55;3.35;;;16.30;92.10;;;;;;5057076;28;20024;-77
2021/06/30 01:48:35;;;;;;;6.25;2.67;;;16.20;92.00;;;;;;5057701;28;20032;-77
2021/06/30 01:51:01;;;;;;;5.78;3.38;;;16.20;92.00;;;;;;5057145;28;20017;-79
2021/06/30 01:53:27;;;;;;;4.70;2.92;;;16.10;92.10;;;;;;5059220;28;20496;-78
2021/06/30 01:55:53;;;;;;;5.78;3.38;;;16.20;92.30;;;;;;5056759;28;20028;-80
2021/06/30 01:58:22;;;;;;;5.60;3.17;;;16.10;92.50;;;;;;5057288;28;20032;-78
2021/06/30 02:00:53;;;;;;;4.45;2.92;;;16.10;92.10;;;;;;5057196;28;20416;-78
2021/06/30 02:03:19;;;;;;;5.97;3.35;;;16.10;92.30;;;;;;5057615;28;20029;-79
2021/06/30 02:05:45;;;;;;;5.40;2.38;;;16.10;92.30;;;;;;5055607;28;20481;-79
2021/06/30 02:08:11;;;;;;;3.83;2.53;;;16.10;92.30;;;;;;5061802;28;20097;-79
2021/06/30 02:10:37;;;;;;;3.40;1.73;;;16.10;92.30;;;;;;5061357;28;20473;-78
2021/06/30 02:13:04;;;;;;;5.05;2.70;;;16.00;92.00;;;;;;5056556;28;20052;-79
2021/06/30 02:15:31;;;;;;;5.18;3.25;;;16.00;92.40;;;;;;5055966;28;20050;-80
2021/06/30 02:17:58;;;;;;;4.05;2.53;;;16.00;92.60;;;;;;5056152;28;20070;-79
2021/06/30 02:20:25;;;;;;;4.10;2.33;;;16.00;92.40;;;;;;5056370;28;20037;-78
2021/06/30 02:22:51;;;;;;;3.83;2.38;;;16.00;92.40;;;;;;5056041;28;20021;-79
2021/06/30 02:25:21;;;;;;;4.97;2.70;;;16.00;92.50;;;;;;5057945;28;20070;-79
2021/06/30 02:27:48;;;;;;;7.43;2.97;;;15.90;92.40;;;;;;5058237;28;20087;-79
2021/06/30 02:30:24;;;;;;;4.53;2.63;;;15.90;92.40;;;;;;5068502;28;20005;-78
2021/06/30 02:32:50;;;;;;;3.42;1.73;;;15.90;92.50;;;;;;5069246;28;20021;-79
2021/06/30 02:35:19;;;;;;;4.43;2.45;;;15.90;92.40;;;;;;5062409;28;20075;-78
2021/06/30 02:37:45;;;;;;;3.78;1.77;;;15.90;92.50;;;;;;5057361;28;20021;-79
2021/06/30 02:40:14;;;;;;;5.18;2.30;;;15.90;92.60;;;;;;5058009;28;20124;-78
2021/06/30 02:42:41;;;;;;;3.42;2.05;;;15.80;92.40;;;;;;5061723;28;20025;-77
2021/06/30 02:45:09;;;;;;;6.07;2.55;;;15.90;92.60;;;;;;5061864;28;20052;-77
2021/06/30 02:47:36;;;;;;;4.40;2.03;;;15.80;92.60;;;;;;5058566;28;20025;-79
2021/06/30 02:50:06;;;;;;;5.05;2.33;;;15.80;92.20;;;;;;5056325;28;20116;-79
2021/06/30 02:52:33;;;;;;;4.40;2.15;;;15.80;92.40;;;;;;5056282;28;20158;-78
2021/06/30 02:54:59;;;;;;;3.72;1.95;;;15.80;92.50;;;;;;5055937;28;20025;-77
2021/06/30 02:57:24;;;;;;;5.93;2.50;;;15.80;92.40;;;;;;5059759;28;20070;-77
2021/06/30 02:59:50;;;;;;;4.93;2.30;;;15.70;92.40;;;;;;5073088;28;20017;-79
2021/06/30 03:02:16;;;;;;;3.38;2.10;;;15.80;92.50;;;;;;5056545;28;20035;-79
2021/06/30 03:04:41;;;;;;;4.28;1.92;;;15.80;92.60;;;;;;5055462;28;20462;-78
2021/06/30 03:07:07;;;;;;;4.35;2.10;;;15.80;92.60;;;;;;5055131;28;20021;-79
2021/06/30 03:09:33;;;;;;;6.65;2.63;;;15.70;92.90;;;;;;5056569;28;20025;-78
2021/06/30 03:12:00;;;;;;;4.75;2.38;;;15.80;92.60;;;;;;5054706;28;20021;-77
2021/06/30 03:14:26;;;;;;;4.85;2.42;;;15.80;92.60;;;;;;5055973;28;20465;-78
2021/06/30 03:16:51;;;;;;;6.00;2.55;;;15.80;92.60;;;;;;5055062;28;20083;-79
2021/06/30 03:19:17;;;;;;;5.20;2.50;;;15.80;92.70;;;;;;5055608;28;20060;-79
2021/06/30 03:21:42;;;;;;;5.18;2.50;;;15.80;92.70;;;;;;5056653;28;20541;-78
2021/06/30 03:24:09;;;;;;;8.70;2.38;;;15.80;92.60;;;;;;5058956;28;20060;-79
2021/06/30 03:26:35;;;;;;;3.88;2.40;;;15.70;92.70;;;;;;5054436;28;20017;-79
2021/06/30 03:29:02;;;;;;;5.30;2.33;;;15.70;93.10;;;;;;5054620;28;20052;-79
2021/06/30 03:31:28;;;;;;;4.78;2.60;;;15.70;92.90;;;;;;5054668;28;20381;-77
2021/06/30 03:33:54;;;;;;;5.18;2.88;;;15.80;92.90;;;;;;5053968;28;20021;-78
2021/06/30 03:36:19;;;;;;;6.68;2.50;;;15.80;92.80;;;;;;5054104;28;20029;-77
2021/06/30 03:38:45;;;;;;;5.10;2.78;;;15.70;92.70;;;;;;5053605;28;20508;-79
2021/06/30 03:41:11;;;;;;;4.38;2.38;;;15.80;92.60;;;;;;5053970;28;20024;-79
2021/06/30 03:43:36;;;;;;;4.18;2.28;;;15.60;92.70;;;;;;5054335;28;20052;-78
2021/06/30 03:46:02;;;;;;;5.07;2.63;;;15.60;92.70;;;;;;5054956;28;20021;-79
2021/06/30 03:48:27;;;;;;;4.93;2.97;;;15.60;92.70;;;;;;5055268;28;20079;-79
2021/06/30 03:50:53;;;;;;;5.22;3.08;;;15.60;92.80;;;;;;5055869;28;20017;-79
2021/06/30 03:53:19;;;;;;;5.13;3.30;;;15.60;93.00;;;;;;5055403;28;20021;-79
2021/06/30 03:55:44;;;;;;;4.68;2.60;;;15.60;93.00;;;;;;5054221;28;20449;-78
2021/06/30 03:58:10;;;;;;;3.42;2.15;;;15.60;93.00;;;;;;5054062;28;20056;-79
2021/06/30 04:00:36;;;;;;;4.50;2.53;;;15.60;92.90;;;;;;5054285;28;20025;-79
2021/06/30 04:03:01;;;;;;;4.03;2.60;;;15.60;93.00;;;;;;5054137;28;20447;-78
2021/06/30 04:05:27;;;;;;;4.57;2.53;;;15.60;92.90;;;;;;5054587;28;20033;-79
2021/06/30 04:07:52;;;;;;;4.28;2.20;;;15.60;92.80;;;;;;5053839;28;20465;-78
2021/06/30 04:10:18;;;;;;;5.20;2.63;;;15.60;92.80;;;;;;5053964;28;20025;-79
2021/06/30 04:12:44;;;;;;;6.55;3.00;;;15.60;92.80;;;;;;5054052;28;20021;-78
2021/06/30 04:15:10;;;;;;;4.25;2.65;;;15.60;92.90;;;;;;5055239;28;20082;-78
2021/06/30 04:17:36;;;;;;;3.97;2.40;;;15.60;92.90;;;;;;5053827;28;20045;-78
2021/06/30 04:20:08;;;;;;;5.28;2.88;;;15.60;92.90;;;;;;5054248;28;20032;-77
2021/06/30 04:22:34;;;;;;;5.47;3.33;;;15.60;92.90;;;;;;5062938;28;20052;-77
2021/06/30 04:25:00;;;;;;;3.15;1.98;;;15.70;92.90;;;;;;5068109;28;20526;-77
2021/06/30 04:27:26;;;;;;;4.60;2.65;;;15.70;92.80;;;;;;5056512;28;20499;-78
2021/06/30 04:29:52;;;;;;;5.13;3.00;;;15.60;92.50;;;;;;5052354;28;20025;-78
2021/06/30 04:32:17;;;;;;;5.07;2.63;;;15.60;92.50;;;;;;5052347;28;20025;-79
2021/06/30 04:34:43;;;;;;;5.80;3.05;;;15.60;92.60;;;;;;5052566;28;20458;-78
2021/06/30 04:37:08;;;;;;;6.20;3.65;;;15.60;92.50;;;;;;5052677;28;20043;-79
2021/06/30 04:39:34;;;;;;;5.93;3.50;;;15.70;92.40;;;;;;5052243;28;20049;-79
2021/06/30 04:42:00;;;;;;;7.35;3.70;;;15.70;92.40;;;;;;5052097;28;20036;-78
2021/06/30 04:44:25;;;;;;;6.72;3.80;;;15.60;92.30;;;;;;5052570;28;20028;-78
2021/06/30 04:46:51;;;;;;;6.95;4.32;;;15.60;92.40;;;;;;5052582;28;20166;-78
2021/06/30 04:49:16;;;;;;;6.18;3.88;;;15.60;92.60;;;;;;5052218;28;20032;-79
2021/06/30 04:51:44;;;;;;;6.20;4.38;;;15.60;92.50;;;;;;5054446;28;20032;-78
2021/06/30 04:54:10;;;;;;;9.38;4.45;;;15.60;92.50;;;;;;5052715;28;20047;-78
2021/06/30 04:56:42;;;;;;;8.93;5.03;;;15.50;92.50;;;;;;5052623;28;20111;-78
2021/06/30 04:59:08;;;;;;;7.53;4.78;;;15.50;92.60;;;;;;5054306;28;20032;-78
2021/06/30 05:01:35;;;;;;;8.20;4.53;;;15.50;92.70;;;;;;5064946;28;20096;-77
2021/06/30 05:04:01;;;;;;;7.65;4.70;;;15.50;92.70;;;;;;5069862;28;20009;-78
2021/06/30 05:06:26;;;;;;;7.63;4.28;;;15.50;92.60;;;;;;5054272;28;20166;-79
2021/06/30 05:08:52;;;;;;;6.00;3.85;;;15.60;92.60;;;;;;5053474;28;20123;-79
2021/06/30 05:11:18;;;;;;;7.10;4.43;;;15.50;92.70;;;;;;5052908;28;20017;-79
2021/06/30 05:13:43;;;;;;;7.22;4.55;;;15.60;92.50;;;;;;5060672;28;20225;-79
2021/06/30 05:16:09;;;;;;;9.25;5.60;;;15.50;92.50;;;;;;5053104;28;20114;-79
2021/06/30 05:18:35;;;;;;;9.10;4.70;;;15.50;92.60;;;;;;5053217;28;20488;-79
2021/06/30 05:21:01;;;;;;;9.35;5.13;;;15.50;92.60;;;;;;5052444;28;20124;-78
2021/06/30 05:23:27;;;;;;;7.88;5.50;;;15.50;92.80;;;;;;5052231;28;20079;-79
2021/06/30 05:25:52;;;;;;;7.97;4.93;;;15.40;92.80;;;;;;5052324;28;20021;-77
2021/06/30 05:28:18;;;;;;;10.30;6.30;;;15.40;92.80;;;;;;5052478;28;20028;-79
2021/06/30 05:30:44;;;;;;;8.65;5.72;;;15.50;92.80;;;;;;5052604;28;20153;-78
2021/06/30 05:33:11;;;;;;;10.43;6.30;;;15.50;92.90;;;;;;5052206;28;20507;-79
2021/06/30 05:35:36;;;;;;;10.90;6.28;;;15.50;92.70;;;;;;5053361;28;20164;-78
2021/06/30 05:38:02;;;;;;;8.50;6.03;;;15.50;92.60;;;;;;5052379;28;20063;-78
2021/06/30 05:40:28;;;;;;;11.00;6.28;;;15.50;92.80;;;;;;5052675;28;20043;-77
2021/06/30 05:42:55;;;;;;;9.73;6.10;;;15.50;92.80;;;;;;5051836;28;20366;-78
2021/06/30 05:45:21;;;;;;;10.25;6.28;;;15.50;92.70;;;;;;5055194;28;20101;-77
2021/06/30 05:47:47;;;;;;;10.25;5.40;;;15.50;92.80;;;;;;5063921;28;20033;-76
2021/06/30 05:50:14;;;;;;;7.07;5.15;;;15.60;92.90;;;;;;5062215;28;20501;-78
2021/06/30 05:52:40;;;;;;;7.60;5.00;;;15.50;92.80;;;;;;5060681;28;20029;-79
2021/06/30 05:55:08;;;;;;;9.10;5.15;;;15.50;92.70;;;;;;5052981;28;20053;-78
2021/06/30 05:57:34;;;;;;;9.48;5.10;;;15.50;92.80;;;;;;5048586;28;20119;-77
2021/06/30 06:00:00;;;;;;;6.72;4.90;;;15.50;92.90;;;;;;5049218;28;20064;-77
2021/06/30 06:02:25;;;;;;;9.60;5.55;;;15.50;92.80;;;;;;5050726;28;20401;-78
2021/06/30 06:04:51;;;;;;;10.95;5.60;;;15.60;92.70;;;;;;5051685;28;20174;-79
2021/06/30 06:07:17;;;;;;;7.53;5.20;;;15.50;92.80;;;;;;5052136;28;20014;-78
2021/06/30 06:09:42;;;;;;;8.52;4.97;;;15.50;92.80;;;;;;5052238;28;20025;-78
2021/06/30 06:12:08;;;;;;;6.85;4.82;;;15.50;92.90;;;;;;5060167;28;20075;-76
2021/06/30 06:14:34;;;;;;;7.50;5.75;;;15.50;92.80;;;;;;5068205;28;20031;-76
2021/06/30 06:16:59;;;;;;;7.97;5.15;;;15.60;93.00;;;;;;5056299;28;20234;-77
2021/06/30 06:19:25;;;;;;;7.55;4.97;;;15.60;92.90;;;;;;5055338;28;20040;-77
2021/06/30 06:21:51;;;;;;;6.90;4.65;;;15.60;92.80;;;;;;5055049;28;20033;-78
2021/06/30 06:24:17;;;;;;;6.60;4.88;;;15.60;92.80;;;;;;5054950;28;20020;-78
2021/06/30 06:26:43;;;;;;;7.63;4.43;;;15.70;92.90;;;;;;5054636;28;20025;-78
2021/06/30 06:29:10;;;;;;;5.80;4.22;;;15.70;92.60;;;;;;5054784;28;20017;-78
2021/06/30 06:31:36;;;;;;;6.78;4.00;;;15.60;92.60;;;;;;5056110;28;20428;-77
2021/06/30 06:34:01;;;;;;;7.78;4.57;;;15.60;92.80;;;;;;5054763;28;20025;-77
2021/06/30 06:36:27;;;;;;;6.65;4.53;;;15.60;92.90;;;;;;5054679;28;20021;-77
2021/06/30 06:38:53;;;;;;;6.72;4.50;;;15.60;93.10;;;;;;5056902;28;20377;-78
2021/06/30 06:41:18;;;;;;;6.97;4.25;;;15.70;93.00;;;;;;5056149;28;20048;-77
2021/06/30 06:43:44;;;;;;;6.20;4.10;;;15.60;92.70;;;;;;5054994;28;20051;-77
2021/06/30 06:46:10;;;;;;;6.32;4.20;;;15.60;92.80;;;;;;5050748;28;20051;-78
2021/06/30 06:48:36;;;;;;;6.30;4.63;;;15.60;92.70;;;;;;5053630;28;20119;-77
2021/06/30 06:51:03;;;;;;;6.75;4.53;;;15.60;93.00;;;;;;5051808;28;20154;-78
2021/06/30 06:53:28;;;;;;;7.82;4.80;;;15.70;92.90;;;;;;5056013;28;20078;-79
2021/06/30 06:56:02;;;;;;;7.97;4.55;;;15.60;92.90;;;;;;5055190;28;20029;-79
2021/06/30 06:58:28;;;;;;;6.20;4.03;;;15.70;92.90;;;;;;5054040;28;20120;-79
2021/06/30 07:00:59;;;;;;;7.65;5.07;;;15.70;92.80;;;;;;5053199;28;20040;-79
2021/06/30 07:03:30;;;;;;;7.90;4.90;;;15.70;92.70;;;;;;5053941;28;20021;-77
2021/06/30 07:05:59;;;;;;;6.82;4.45;;;15.80;92.60;;;;;;5056763;28;20025;-80
2021/06/30 07:08:25;;;;;;;7.43;4.85;;;15.80;92.70;;;;;;5061343;28;20021;-78
2021/06/30 07:10:52;;;;;;;9.13;5.13;;;15.80;92.90;;;;;;5059314;28;20488;-78
2021/06/30 07:13:18;;;;;;;6.72;5.53;;;15.90;92.90;;;;;;5054285;28;20193;-78
2021/06/30 07:15:45;;;;;;;6.30;4.43;;;15.90;92.90;;;;;;5054593;28;20021;-77
2021/06/30 07:18:21;;;;;;;6.80;4.68;;;16.00;92.60;;;;;;5053511;28;20071;-78
2021/06/30 07:20:52;;;;;;;6.65;4.70;;;16.00;92.30;;;;;;5053682;28;20048;-78
2021/06/30 07:23:18;;;;;;;6.55;4.78;;;16.00;92.30;;;;;;5053603;28;20500;-77
2021/06/30 07:25:46;;;;;;;6.97;4.57;;;16.10;92.30;;;;;;5053122;28;20288;-78
2021/06/30 07:28:19;;;;;;;6.50;4.57;;;16.10;92.60;;;;;;5052906;28;20384;-78
2021/06/30 07:30:51;;;;;;;7.75;5.15;;;16.20;92.30;;;;;;5053709;28;20020;-78
2021/06/30 07:33:19;;;;;;;7.68;5.57;;;16.20;92.30;;;;;;5053344;28;20033;-78
2021/06/30 07:35:47;;;;;;;7.35;4.75;;;16.20;91.90;;;;;;5052853;28;20029;-76
2021/06/30 07:38:13;;;;;;;6.88;4.35;;;16.10;91.70;;;;;;5051279;28;20032;-79
2021/06/30 07:40:38;;;;;;;8.80;5.13;;;16.10;91.70;;;;;;5051371;28;20039;-77
2021/06/30 07:43:06;;;;;;;7.85;5.35;;;16.10;91.80;;;;;;5052877;28;20082;-77
2021/06/30 07:45:32;;;;;;;7.53;5.32;;;16.10;91.90;;;;;;5053355;28;20116;-78
2021/06/30 07:47:58;;;;;;;8.68;4.63;;;16.10;92.00;;;;;;5053300;28;20017;-77
2021/06/30 07:50:24;;;;;;;8.20;5.10;;;16.10;91.80;;;;;;5054142;28;20028;-79
2021/06/30 07:52:50;;;;;;;8.52;5.35;;;16.20;91.80;;;;;;5053126;28;20022;-78
2021/06/30 07:55:18;;;;;;;7.63;5.35;;;16.20;92.10;;;;;;5053236;28;20037;-78
2021/06/30 07:57:44;;;;;;;6.65;4.78;;;16.20;92.00;;;;;;5054404;28;20029;-77
2021/06/30 08:00:10;;;;;;;6.93;5.28;;;16.30;92.20;;;;;;5053415;28;20407;-77
2021/06/30 08:02:36;;;;;;;7.95;4.80;;;16.30;91.90;;;;;;5056536;28;20036;-78
2021/06/30 08:05:07;;;;;;;6.53;5.15;;;16.40;91.70;;;;;;5066081;28;20025;-78
2021/06/30 08:07:32;;;;;;;;;;;16.40;91.90;;;;;;5053475;28;20071;-78
2021/06/30 08:09:58;;;;;;;7.18;4.68;;;16.40;91.40;;;;;;5052703;28;19913;-78
2021/06/30 08:12:24;;;;;;;6.72;5.22;;;16.40;91.40;;;;;;5053033;28;20492;-78
2021/06/30 08:14:50;;;;;;;5.32;3.92;;;16.50;91.70;;;;;;5053107;28;20029;-77
2021/06/30 08:17:16;;;;;;;8.45;5.25;;;16.60;91.60;;;;;;5059188;28;20028;-77
2021/06/30 08:19:42;;;;;;;6.72;4.97;;;16.50;91.40;;;;;;5057999;28;20377;-77
2021/06/30 08:22:10;;;;;;;9.27;5.45;;;16.60;91.70;;;;;;5052145;28;20031;-77
2021/06/30 08:24:41;;;;;;;7.35;4.82;;;16.60;91.40;;;;;;5052794;28;20422;-77
2021/06/30 08:27:08;;;;;;;8.27;5.55;;;16.60;91.20;;;;;;5052670;28;20381;-77
2021/06/30 08:29:35;;;;;;;8.05;5.97;;;16.60;91.30;;;;;;5052564;28;20017;-78
2021/06/30 08:32:00;;;;;;;8.00;5.55;;;16.60;91.50;;;;;;5052291;28;20465;-77
2021/06/30 08:34:27;;;;;;;6.53;4.63;;;16.60;91.80;;;;;;5053028;28;20135;-78
2021/06/30 08:36:58;;;;;;;6.80;5.20;;;16.70;91.60;;;;;;5052554;28;20025;-78
2021/06/30 08:39:24;;;;;;;7.03;5.70;;;16.70;91.40;;;;;;5052408;28;20492;-78
2021/06/30 08:41:50;;;;;;;7.30;5.38;;;16.70;91.30;;;;;;5052899;28;20029;-79
2021/06/30 08:44:15;;;;;;;7.97;5.28;;;16.70;91.30;;;;;;5052515;28;20048;-78
2021/06/30 08:46:43;;;;;;;9.13;5.50;;;16.70;91.20;;;;;;5052365;28;20021;-77
2021/06/30 08:49:10;;;;;;;7.63;5.75;;;16.70;91.50;;;;;;5053499;28;20029;-76
2021/06/30 08:51:37;;;;;;;7.57;5.97;;;16.70;91.40;;;;;;5052864;28;20021;-78
2021/06/30 08:54:07;;;;;;;8.23;5.93;;;16.60;91.20;;;;;;5058205;28;20017;-79
2021/06/30 08:56:34;;;;;;;;;;;16.60;91.60;;;;;;5053452;28;20017;-78
2021/06/30 08:59:00;;;;;;;8.07;5.78;;;16.60;91.40;;;;;;5051572;28;19974;-76
2021/06/30 09:01:28;;;;;;;9.65;6.40;;;16.60;91.60;;;;;;5052629;28;20049;-77
2021/06/30 09:03:56;;;;;;;8.52;5.75;;;16.60;91.30;;;;;;5052648;28;20028;-78
2021/06/30 09:06:26;;;;;;;8.43;5.50;;;16.60;91.40;;;;;;5052631;28;20021;-78
2021/06/30 09:08:52;;;;;;;7.85;5.43;;;16.60;91.50;;;;;;5052914;28;20025;-78
2021/06/30 09:11:20;;;;;;;8.60;5.13;;;16.70;91.60;;;;;;5054929;28;20044;-77
2021/06/30 09:13:49;;;;;;;7.70;5.80;;;16.80;91.50;;;;;;5058711;28;20032;-78
2021/06/30 09:16:15;;;;;;;8.50;5.07;;;16.80;91.40;;;;;;5059273;28;20087;-77
2021/06/30 09:18:41;;;;;;;8.00;5.95;;;16.90;91.50;;;;;;5051732;28;20466;-78
2021/06/30 09:21:24;;;;;;;8.52;5.22;;;16.90;91.40;;;;;;5051548;28;20112;-77
2021/06/30 09:24:06;;;;;;;7.72;5.10;;;16.90;90.90;;;;;;5051419;28;20449;-78
2021/06/30 09:26:37;;;;;;;7.45;5.32;;;16.90;90.70;;;;;;5051144;28;20074;-78
2021/06/30 09:29:08;;;;;;;7.93;4.93;;;16.90;90.80;;;;;;5047837;28;20021;-78
2021/06/30 09:31:35;;;;;;;8.60;5.57;;;16.90;91.30;;;;;;5052402;28;20021;-79
2021/06/30 09:34:02;;;;;;;7.40;4.50;;;16.90;91.60;;;;;;5051479;28;20036;-77
2021/06/30 09:36:50;;;;;;;6.47;4.53;;;16.90;91.30;;;;;;5050736;28;20489;-78
2021/06/30 09:39:17;;;;;;;7.70;4.35;;;16.90;90.80;;;;;;5050382;28;20123;-77
2021/06/30 09:41:44;;;;;;;7.47;4.43;;;17.00;90.70;;;;;;5050894;28;20500;-77
2021/06/30 09:44:17;;;;;;;6.03;4.13;;;17.00;91.10;;;;;;5051239;28;20025;-77
2021/06/30 09:46:46;;;;;;;6.80;4.57;;;17.00;91.50;;;;;;5050512;28;20091;-78
2021/06/30 09:49:17;;;;;;;9.52;5.15;;;17.00;91.40;;;;;;5054730;28;20033;-78
2021/06/30 09:51:45;;;;;;;7.85;5.20;;;16.90;91.40;;;;;;5055826;28;20025;-77
2021/06/30 09:54:17;;;;;;;8.02;5.40;;;16.90;91.70;;;;;;5063619;28;20028;-78
2021/06/30 09:57:02;;;;;;;7.55;5.25;;;16.80;91.40;;;;;;5071044;28;20027;-78
2021/06/30 09:59:35;;;;;;;7.20;5.05;;;16.80;91.40;;;;;;5056192;28;20025;-77
2021/06/30 10:02:13;;;;;;;7.43;4.88;;;16.80;91.50;;;;;;5055318;28;20396;-78
2021/06/30 10:04:41;;;;;;;6.80;4.65;;;16.80;91.10;;;;;;5056315;28;20025;-77
2021/06/30 10:07:22;;;;;;;9.98;5.90;;;16.70;91.20;;;;;;5055970;28;20043;-77
2021/06/30 10:09:48;;;;;;;7.85;5.10;;;16.70;91.50;;;;;;5056085;28;20492;-78
2021/06/30 10:12:15;;;;;;;7.03;5.80;;;16.70;91.40;;;;;;5054937;28;20029;-78
2021/06/30 10:14:43;;;;;;;9.40;5.97;;;16.70;91.60;;;;;;5055390;28;20017;-78
2021/06/30 10:17:10;;;;;;;7.78;6.00;;;16.70;91.60;;;;;;5054731;28;20116;-78
2021/06/30 10:19:38;;;;;;;8.32;5.93;;;16.80;91.50;;;;;;5055531;28;20024;-77
2021/06/30 10:22:06;;;;;;;10.10;6.18;;;16.80;91.90;;;;;;5057109;28;20082;-78
2021/06/30 10:24:32;;;;;;;8.32;6.28;;;16.90;91.80;;;;;;5055599;28;20283;-78
2021/06/30 10:26:58;;;;;;;8.85;5.45;;;17.00;91.70;;;;;;5055299;28;20032;-79
2021/06/30 10:29:29;;;;;;;7.00;5.35;;;17.00;91.00;;;;;;5056365;28;20013;-78
2021/06/30 10:31:57;;;;;;;6.43;4.78;;;17.10;91.30;;;;;;5056692;28;20347;-77
2021/06/30 10:34:37;;;;;;;3.75;2.60;;;17.10;90.90;;;;;;5056868;28;20025;-78
2021/06/30 10:37:15;;;;;;;7.03;5.10;;;17.20;90.70;;;;;;5061486;28;20029;-77
2021/06/30 10:39:49;;;;;;;6.80;4.55;;;17.20;90.70;;;;;;5064898;28;20029;-77
2021/06/30 10:42:26;;;;;;;5.53;4.07;;;17.30;91.10;;;;;;5055291;28;20036;-78
2021/06/30 10:44:56;;;;;;;7.80;5.25;;;17.40;90.60;;;;;;5053993;28;20213;-79
2021/06/30 10:47:37;;;;;;;8.75;5.05;;;17.50;91.00;;;;;;5053974;28;20249;-78
2021/06/30 10:50:31;;;;;;;7.35;6.18;;;17.60;90.40;;;;;;5053899;28;20107;-76
2021/06/30 10:53:03;;;;;;;8.18;5.80;;;17.70;90.50;;;;;;5053741;28;20056;-75
2021/06/30 10:55:38;;;;;;;8.13;4.65;;;17.90;90.20;;;;;;5055174;28;20021;-78
2021/06/30 10:58:13;;;;;;;6.00;4.90;;;17.90;89.60;;;;;;5053950;28;20048;-77
2021/06/30 11:00:48;;;;;;;7.47;4.88;;;18.00;90.00;;;;;;5053602;28;20178;-78
2021/06/30 11:03:38;;;;;;;6.85;4.70;;;17.90;90.00;;;;;;5054505;28;20021;-78
2021/06/30 11:06:06;;;;;;;7.43;4.87;;;18.00;88.90;;;;;;5053988;28;20048;-78
2021/06/30 11:08:45;;;;;;;7.97;5.15;;;18.00;90.00;;;;;;5055569;28;20048;-78
2021/06/30 11:11:12;;;;;;;6.65;4.97;;;18.10;89.20;;;;;;5055676;28;20047;-78
2021/06/30 11:14:02;;;;;;;7.53;4.45;;;18.20;88.40;;;;;;5055995;28;20025;-78
2021/06/30 11:16:43;;;;;;;7.32;4.20;;;18.30;89.00;;;;;;5057140;28;20021;-77
2021/06/30 11:19:28;;;;;;;8.10;4.82;;;18.40;87.20;;;;;;5070552;28;20036;-76
2021/06/30 11:21:59;;;;;;;7.40;5.07;;;18.50;86.40;;;;;;5063500;28;20106;-78
2021/06/30 11:24:40;;;;;;;6.80;4.53;;;18.40;86.80;;;;;;5053544;28;20255;-77
2021/06/30 11:27:06;;;;;;;7.05;5.70;;;18.20;87.20;;;;;;5053697;28;20036;-78
2021/06/30 11:29:48;;;;;;;8.00;5.78;;;18.20;87.50;;;;;;5053955;28;20025;-78
2021/06/30 11:32:38;;;;;;;7.93;6.13;;;18.10;87.80;;;;;;5053539;28;20081;-78
2021/06/30 11:35:10;;;;;;;10.38;7.03;;;17.90;88.20;;;;;;5053310;28;20469;-78
2021/06/30 11:37:41;;;;;;;10.98;7.35;;;17.80;88.30;;;;;;5053710;28;20461;-77
2021/06/30 11:40:17;;;;;;;11.13;8.48;;;17.70;89.20;;;;;;5053806;28;20025;-78
2021/06/30 11:42:48;;;;;;;11.38;9.45;;;17.60;89.50;;;;;;5053994;28;20017;-78
2021/06/30 11:45:18;;;;;;;13.27;10.73;;;17.60;89.10;;;;;;5056572;28;20032;-78
2021/06/30 11:47:46;;;;;;;13.60;9.77;;;17.50;90.30;;;;;;5068647;28;20021;-79
2021/06/30 11:50:17;;;;;;;12.18;9.88;;;17.50;89.70;;;;;;5054847;28;20036;-78
2021/06/30 11:52:44;;;;;;;13.13;10.90;;;17.50;90.00;;;;;;5053600;28;20020;-78
2021/06/30 11:55:10;;;;;;;13.38;11.05;;;17.40;90.10;;;;;;5057232;28;20025;-79
2021/06/30 11:58:09;;;;;;;15.48;10.32;;;17.50;90.00;;;;;;5055229;28;20036;-77
2021/06/30 12:00:43;;;;;;;12.30;10.13;;;17.40;90.10;;;;;;5032104;28;20045;-78
2021/06/30 12:03:09;;;;;;;14.13;11.05;;;17.40;90.20;;;;;;5053139;28;20025;-79
2021/06/30 12:05:38;;;;;;;14.25;10.65;;;17.40;90.00;;;;;;5053723;28;20098;-79
2021/06/30 12:08:04;;;;;;;10.85;9.23;;;17.40;89.70;;;;;;5053628;28;20039;-78
2021/06/30 12:10:31;;;;;;;12.10;10.38;;;17.40;90.20;;;;;;5053597;28;20035;-79
2021/06/30 12:12:59;;;;;;;14.07;9.43;;;17.40;90.20;;;;;;5053956;28;20112;-78
2021/06/30 12:15:26;;;;;;;12.48;9.18;;;17.40;90.30;;;;;;5051841;28;20423;-79
2021/06/30 12:17:56;;;;;;;12.77;10.05;;;17.40;90.30;;;;;;5053644;28;20025;-79
2021/06/30 12:20:25;;;;;;;12.98;9.82;;;17.40;90.40;;;;;;5053203;28;20024;-79
2021/06/30 12:22:51;;;;;;;13.35;10.32;;;17.40;90.40;;;;;;5052835;28;20458;-80
2021/06/30 12:25:17;;;;;;;13.27;9.93;;;17.40;90.80;;;;;;5050884;28;20028;-80
2021/06/30 12:27:48;;;;;;;12.15;10.18;;;17.40;90.80;;;;;;5053744;28;20025;-80
2021/06/30 12:30:26;;;;;;;11.30;9.05;;;17.40;90.70;;;;;;5056383;28;20080;-79
2021/06/30 12:32:56;;;;;;;16.02;11.35;;;17.40;90.60;;;;;;5062102;28;20025;-81
2021/06/30 12:35:26;;;;;;;15.50;10.90;;;17.30;90.70;;;;;;5063313;28;20079;-78
2021/06/30 12:37:58;;;;;;;11.13;8.02;;;17.40;91.00;;;;;;5061902;28;20025;-79
2021/06/30 12:40:25;;;;;;;14.32;10.15;;;17.40;90.80;;;;;;5058045;28;20104;-80
2021/06/30 12:42:55;;;;;;;9.90;8.23;;;17.40;90.70;;;;;;5063024;28;20086;-81
2021/06/30 12:45:42;;;;;;;12.73;10.17;;;17.50;90.60;;;;;;5061790;28;20044;-79
2021/06/30 12:48:14;;;;;;;12.25;8.73;;;17.50;90.50;;;;;;5059090;28;20031;-78
2021/06/30 12:50:42;;;;;;;8.88;6.32;;;17.50;90.30;;;;;;5063879;28;20500;-80